Time;durP1;ratioP1;P1;durP2;ratioP2;P2;SDS_P1;SDS_P2;PMS_P1;PMS_P2;Temp;Humidity;BMP_temperature;BMP_pressure;BME280_temperature;BME280_humidity;BME280_pressure;Samples;Min_cycle;Max_cycle;Signal;HPM_P1;HPM_P2
2021/06/30 00:01:19;;;;;;;4.17;1.43;;;;;;;14.65;100.00;95282.84;5063437;28;20210;-76
2021/06/30 00:03:51;;;;;;;1.27;1.27;;;;;;;14.63;100.00;95282.22;5061093;28;20214;-76
2021/06/30 00:06:26;;;;;;;1.80;1.70;;;;;;;14.58;100.00;95280.22;5055368;28;20650;-76
2021/06/30 00:08:58;;;;;;;1.13;1.03;;;;;;;14.57;100.00;95277.78;5059252;28;20649;-76
2021/06/30 00:11:31;;;;;;;0.70;0.70;;;;;;;14.57;100.00;95280.44;5057612;28;20269;-77
2021/06/30 00:14:05;;;;;;;1.03;1.00;;;;;;;14.57;100.00;95267.19;5061413;28;20210;-77
2021/06/30 00:16:38;;;;;;;4.10;1.27;;;;;;;14.58;100.00;95279.41;5073050;28;20226;-77
2021/06/30 00:19:12;;;;;;;0.83;0.83;;;;;;;14.59;100.00;95281.03;5064053;28;20225;-77
2021/06/30 00:21:47;;;;;;;1.97;1.73;;;;;;;14.60;100.00;95290.63;5062048;28;20222;-78
2021/06/30 00:24:20;;;;;;;1.93;1.77;;;;;;;14.57;100.00;95280.44;5053023;28;20310;-77
2021/06/30 00:26:53;;;;;;;1.50;1.40;;;;;;;14.51;100.00;95276.81;5060746;28;20730;-77
2021/06/30 00:29:26;;;;;;;2.00;1.83;;;;;;;14.47;100.00;95265.00;5058787;28;20215;-77
2021/06/30 00:31:59;;;;;;;5.27;1.63;;;;;;;14.42;100.00;95262.97;5063414;28;20284;-77
2021/06/30 00:34:32;;;;;;;2.50;1.47;;;;;;;14.42;100.00;95268.28;5064336;28;20705;-77
2021/06/30 00:37:06;;;;;;;2.57;2.37;;;;;;;14.33;100.00;95268.75;5056409;28;20242;-76
2021/06/30 00:39:39;;;;;;;1.07;1.07;;;;;;;14.34;100.00;95265.06;5055533;28;20219;-77
2021/06/30 00:42:12;;;;;;;4.17;2.67;;;;;;;14.22;100.00;95259.66;5065699;28;20222;-76
2021/06/30 00:44:46;;;;;;;1.93;1.83;;;;;;;14.12;100.00;95259.34;5056532;28;20562;-76
2021/06/30 00:47:19;;;;;;;2.07;1.97;;;;;;;14.13;100.00;95259.13;5058992;28;20214;-76
2021/06/30 00:49:52;;;;;;;6.77;2.40;;;;;;;14.19;100.00;95268.06;5058830;28;20277;-76
2021/06/30 00:52:27;;;;;;;2.60;2.40;;;;;;;14.18;100.00;95271.75;5049500;28;20246;-77
2021/06/30 00:54:59;;;;;;;3.77;2.13;;;;;;;14.18;100.00;95282.38;5058716;28;20306;-77
2021/06/30 00:57:33;;;;;;;1.57;1.47;;;;;;;14.17;100.00;95286.03;5058925;28;20334;-77
2021/06/30 01:00:08;;;;;;;4.60;1.73;;;;;;;14.03;100.00;95284.50;5059862;28;20317;-77
2021/06/30 01:02:40;;;;;;;2.70;1.40;;;;;;;13.93;100.00;95287.63;5059106;28;20702;-77
2021/06/30 01:05:14;;;;;;;1.30;1.30;;;;;;;14.00;100.00;95284.94;5064454;28;20229;-78
2021/06/30 01:07:49;;;;;;;1.50;1.40;;;;;;;13.98;100.00;95284.31;5050703;28;20749;-77
2021/06/30 01:10:22;;;;;;;1.27;1.17;;;;;;;13.98;100.00;95287.78;5059244;28;20220;-76
2021/06/30 01:12:55;;;;;;;1.87;1.77;;;;;;;14.04;100.00;95286.13;5049603;28;20601;-76
2021/06/30 01:15:28;;;;;;;1.10;1.00;;;;;;;14.01;100.00;95295.34;5057403;28;20246;-76
2021/06/30 01:18:01;;;;;;;2.57;1.60;;;;;;;13.93;100.00;95296.41;5057457;28;20288;-75
2021/06/30 01:20:34;;;;;;;1.00;1.00;;;;;;;13.86;100.00;95298.28;5072785;28;20234;-76
2021/06/30 01:23:10;;;;;;;7.60;1.20;;;;;;;13.89;100.00;95294.38;5055980;28;20229;-76
2021/06/30 01:25:43;;;;;;;2.47;2.37;;;;;;;14.01;100.00;95308.59;5060367;28;20656;-76
2021/06/30 01:28:17;;;;;;;1.33;1.23;;;;;;;14.06;100.00;95300.78;5044570;28;20257;-75
2021/06/30 01:30:52;;;;;;;1.37;1.23;;;;;;;14.02;100.00;95314.72;5049176;28;20223;-76
2021/06/30 01:33:25;;;;;;;1.33;1.00;;;;;;;14.02;100.00;95309.41;5058130;28;20280;-76
2021/06/30 01:35:58;;;;;;;2.53;0.87;;;;;;;14.02;100.00;95318.19;5059415;28;20276;-76
2021/06/30 01:38:33;;;;;;;1.00;0.90;;;;;;;13.90;100.00;95331.31;5064582;28;20336;-76
2021/06/30 01:41:07;;;;;;;1.53;1.23;;;;;;;13.73;100.00;95332.03;5050786;28;20643;-76
2021/06/30 01:43:40;;;;;;;1.40;1.30;;;;;;;13.70;100.00;95337.72;5056016;28;20357;-77
2021/06/30 01:46:13;;;;;;;1.13;1.13;;;;;;;13.60;100.00;95349.59;5069414;28;20227;-75
2021/06/30 01:48:47;;;;;;;1.20;1.10;;;;;;;13.58;100.00;95350.84;5052238;28;20271;-76
2021/06/30 01:51:20;;;;;;;3.17;1.20;;;;;;;13.52;100.00;95351.66;5054298;28;20488;-75
2021/06/30 01:53:56;;;;;;;1.50;1.23;;;;;;;13.54;100.00;95366.34;5058835;28;20707;-75
2021/06/30 01:56:31;;;;;;;1.37;0.80;;;;;;;13.47;100.00;95375.34;5058640;28;20222;-76
2021/06/30 01:59:07;;;;;;;0.60;0.60;;;;;;;13.44;100.00;95366.00;5053143;28;20286;-75
2021/06/30 02:01:40;;;;;;;0.60;0.50;;;;;;;13.18;100.00;95366.81;5060825;28;20213;-76
2021/06/30 02:04:14;;;;;;;0.93;0.77;;;;;;;13.06;100.00;95384.34;5073150;28;20214;-76
2021/06/30 02:06:47;;;;;;;0.80;0.40;;;;;;;12.98;100.00;95372.13;5053996;28;20275;-76
2021/06/30 02:09:22;;;;;;;0.30;0.30;;;;;;;13.07;100.00;95386.81;5050109;28;20295;-75
2021/06/30 02:11:55;;;;;;;0.57;0.30;;;;;;;12.97;100.00;95377.63;5066407;28;20637;-75
2021/06/30 02:14:28;;;;;;;0.20;0.20;;;;;;;12.92;100.00;95366.88;5058436;28;20231;-76
2021/06/30 02:17:00;;;;;;;0.37;0.30;;;;;;;12.86;100.00;95357.09;5057505;28;20766;-76
2021/06/30 02:19:33;;;;;;;0.20;0.10;;;;;;;12.84;100.00;95353.84;5055342;28;20241;-76
2021/06/30 02:22:07;;;;;;;0.10;0.10;;;;;;;12.86;100.00;95343.84;5058073;28;20257;-76
2021/06/30 02:24:41;;;;;;;0.13;0.13;;;;;;;12.77;100.00;95353.81;5053429;28;20215;-76
2021/06/30 02:27:14;;;;;;;0.10;0.10;;;;;;;12.71;100.00;95344.88;5049162;28;20323;-75
2021/06/30 02:29:47;;;;;;;0.17;0.17;;;;;;;12.72;100.00;95348.34;5059033;28;20214;-76
2021/06/30 02:32:21;;;;;;;0.40;0.40;;;;;;;12.73;100.00;95368.50;5053391;28;20656;-77
2021/06/30 02:34:55;;;;;;;0.10;0.10;;;;;;;12.71;100.00;95389.91;5068711;28;20223;-76
2021/06/30 02:37:29;;;;;;;0.50;0.50;;;;;;;12.78;100.00;95387.22;5063146;28;20318;-76
2021/06/30 02:40:05;;;;;;;0.30;0.20;;;;;;;12.77;100.00;95391.72;5054963;28;20235;-76
2021/06/30 02:42:39;;;;;;;1.70;0.10;;;;;;;12.63;100.00;95398.03;5050232;28;20521;-76
2021/06/30 02:45:17;;;;;;;0.20;0.20;;;;;;;12.65;100.00;95398.63;5070144;28;20237;-76
2021/06/30 02:47:51;;;;;;;0.60;0.53;;;;;;;12.48;100.00;95397.41;5063225;28;20245;-76
2021/06/30 02:50:23;;;;;;;1.93;0.10;;;;;;;12.46;100.00;95402.09;5056393;28;20325;-76
2021/06/30 02:52:57;;;;;;;0.10;0.10;;;;;;;12.52;100.00;95403.91;5048131;28;20255;-76
2021/06/30 02:55:31;;;;;;;0.10;0.10;;;;;;;12.32;100.00;95411.81;5060057;28;20229;-74
2021/06/30 02:58:04;;;;;;;0.20;0.20;;;;;;;12.22;100.00;95406.09;5052773;28;20226;-74
2021/06/30 03:00:37;;;;;;;0.20;0.10;;;;;;;12.21;100.00;95413.22;5054828;28;20288;-75
2021/06/30 03:03:10;;;;;;;0.10;0.10;;;;;;;12.16;100.00;95420.13;5055441;28;20225;-75
2021/06/30 03:05:43;;;;;;;0.10;0.10;;;;;;;12.20;100.00;95416.88;5058245;28;20303;-75
2021/06/30 03:08:16;;;;;;;0.20;0.20;;;;;;;12.10;100.00;95416.47;5061361;28;20222;-75
2021/06/30 03:10:51;;;;;;;0.10;0.10;;;;;;;12.11;100.00;95418.09;5054125;28;20686;-75
2021/06/30 03:13:24;;;;;;;0.37;0.10;;;;;;;12.11;100.00;95417.28;5055407;28;20710;-75
2021/06/30 03:15:57;;;;;;;0.00;0.00;;;;;;;12.08;100.00;95397.34;5052620;28;20277;-75
2021/06/30 03:18:30;;;;;;;0.17;0.10;;;;;;;12.19;100.00;95399.38;5054611;28;20215;-75
2021/06/30 03:21:04;;;;;;;0.10;0.10;;;;;;;12.16;100.00;95393.66;5054500;28;20415;-74
2021/06/30 03:23:37;;;;;;;0.20;0.20;;;;;;;12.16;100.00;95386.56;5058320;28;20238;-74
2021/06/30 03:26:12;;;;;;;0.60;0.60;;;;;;;12.17;100.00;95380.25;5046999;28;20219;-74
2021/06/30 03:28:45;;;;;;;0.40;0.20;;;;;;;12.20;100.00;95374.56;5059623;28;20222;-74
2021/06/30 03:31:18;;;;;;;0.20;0.10;;;;;;;12.19;100.00;95356.25;5054791;28;20221;-74
2021/06/30 03:33:51;;;;;;;0.10;0.10;;;;;;;12.17;100.00;95372.31;5053559;28;20223;-74
2021/06/30 03:36:24;;;;;;;0.10;0.10;;;;;;;12.21;100.00;95360.31;5056106;28;20223;-74
2021/06/30 03:38:57;;;;;;;0.40;0.10;;;;;;;12.26;100.00;95357.09;5056841;28;20226;-74
2021/06/30 03:41:32;;;;;;;0.10;0.10;;;;;;;12.28;100.00;95364.81;5056874;28;20652;-74
2021/06/30 03:44:06;;;;;;;0.00;0.00;;;;;;;12.27;100.00;95371.94;5051278;28;20233;-74
2021/06/30 03:46:39;;;;;;;0.60;0.10;;;;;;;12.36;100.00;95383.16;5061487;28;20222;-74
2021/06/30 03:49:12;;;;;;;0.20;0.10;;;;;;;12.31;100.00;95390.84;5043542;28;20230;-74
2021/06/30 03:51:45;;;;;;;0.00;0.00;;;;;;;12.34;100.00;95396.56;5050124;28;20291;-75
2021/06/30 03:54:18;;;;;;;0.30;0.10;;;;;;;12.28;100.00;95391.28;5052491;28;20646;-75
2021/06/30 03:56:52;;;;;;;0.10;0.10;;;;;;;12.28;100.00;95399.19;5047902;28;20589;-73
2021/06/30 03:59:26;;;;;;;0.13;0.07;;;;;;;12.13;100.00;95389.59;5052868;28;20223;-75
2021/06/30 04:01:59;;;;;;;0.10;0.10;;;;;;;12.11;100.00;95389.00;5054768;28;20606;-75
2021/06/30 04:04:32;;;;;;;0.00;0.00;;;;;;;12.01;100.00;95395.69;5042772;28;20288;-75
2021/06/30 04:07:05;;;;;;;0.10;0.10;;;;;;;11.87;100.00;95384.22;5051044;28;20225;-75
2021/06/30 04:09:34;;;;;;;0.53;0.53;;;;;;;11.91;100.00;95396.06;5058831;28;20239;-75
2021/06/30 04:12:08;;;;;;;1.70;0.07;;;;;;;11.92;100.00;95390.56;5051068;28;20222;-75
2021/06/30 04:14:41;;;;;;;1.17;0.33;;;;;;;11.80;100.00;95394.00;5058914;28;20687;-75
2021/06/30 04:17:15;;;;;;;0.00;0.00;;;;;;;11.80;100.00;95399.28;5057031;28;20265;-75
2021/06/30 04:19:47;;;;;;;0.30;0.30;;;;;;;11.77;100.00;95404.91;5066315;28;20292;-75
2021/06/30 04:22:21;;;;;;;0.20;0.20;;;;;;;11.84;100.00;95400.50;5055964;28;20649;-75
2021/06/30 04:24:53;;;;;;;0.10;0.10;;;;;;;11.89;100.00;95403.38;5055695;28;20214;-75
2021/06/30 04:27:28;;;;;;;1.50;0.00;;;;;;;11.99;100.00;95398.53;5048876;28;20253;-75
2021/06/30 04:30:02;;;;;;;0.50;0.00;;;;;;;11.89;100.00;95398.09;5064598;28;20266;-75
2021/06/30 04:32:35;;;;;;;0.07;0.03;;;;;;;11.94;100.00;95396.47;5063423;28;20218;-75
2021/06/30 04:35:09;;;;;;;0.10;0.00;;;;;;;11.92;100.00;95400.31;5055290;28;20810;-75
2021/06/30 04:37:43;;;;;;;0.10;0.10;;;;;;;11.80;100.00;95396.63;5059403;28;22570;-75
2021/06/30 04:40:15;;;;;;;0.00;0.00;;;;;;;11.74;100.00;95400.84;5060341;28;20218;-75
2021/06/30 04:42:50;;;;;;;0.00;0.00;;;;;;;11.74;100.00;95397.38;5057452;28;20698;-75
2021/06/30 04:45:18;;;;;;;0.10;0.10;;;;;;;11.69;100.00;95390.84;5061825;28;20231;-75
2021/06/30 04:47:51;;;;;;;0.10;0.10;;;;;;;11.68;100.00;95391.84;5060410;28;20904;-75
2021/06/30 04:50:23;;;;;;;0.20;0.20;;;;;;;11.71;100.00;95390.66;5055360;28;20721;-74
2021/06/30 04:52:57;;;;;;;0.07;0.07;;;;;;;11.73;100.00;95387.81;5054437;28;20224;-75
2021/06/30 04:55:30;;;;;;;0.10;0.00;;;;;;;11.82;100.00;95381.38;5059929;28;20270;-75
2021/06/30 04:58:07;;;;;;;0.07;0.00;;;;;;;11.91;100.00;95386.28;5059882;28;20210;-75
2021/06/30 05:00:39;;;;;;;0.30;0.30;;;;;;;11.85;100.00;95380.97;5054890;28;20214;-75
2021/06/30 05:03:12;;;;;;;0.30;0.10;;;;;;;11.93;100.00;95381.63;5049373;28;20261;-75
2021/06/30 05:05:45;;;;;;;0.00;0.00;;;;;;;12.04;100.00;95380.22;5051757;28;20219;-76
2021/06/30 05:08:18;;;;;;;0.00;0.00;;;;;;;12.23;100.00;95379.44;5059398;28;20229;-75
2021/06/30 05:10:52;;;;;;;0.30;0.00;;;;;;;12.32;100.00;95376.59;5070896;28;20711;-75
2021/06/30 05:13:26;;;;;;;0.03;0.03;;;;;;;12.37;100.00;95375.00;5061069;28;20627;-74
2021/06/30 05:15:59;;;;;;;1.60;0.00;;;;;;;12.35;100.00;95373.56;5071565;28;20225;-75
2021/06/30 05:18:33;;;;;;;0.00;0.00;;;;;;;12.49;99.89;95377.84;5051048;28;20214;-75
2021/06/30 05:21:06;;;;;;;0.10;0.00;;;;;;;12.60;100.00;95374.59;5074894;28;20214;-75
2021/06/30 05:23:39;;;;;;;0.40;0.30;;;;;;;12.67;100.00;95375.41;5050074;28;20886;-75
2021/06/30 05:26:12;;;;;;;0.00;0.00;;;;;;;12.69;99.84;95370.72;5048632;28;20218;-75
2021/06/30 05:28:47;;;;;;;0.10;0.03;;;;;;;12.77;99.88;95373.19;5052078;28;20229;-75
2021/06/30 05:31:19;;;;;;;0.00;0.00;;;;;;;12.81;99.06;95377.06;5059050;28;20269;-75
2021/06/30 05:33:52;;;;;;;0.30;0.10;;;;;;;12.81;99.57;95376.25;5055074;28;20225;-76
2021/06/30 05:36:25;;;;;;;0.10;0.00;;;;;;;12.99;99.29;95378.28;5050847;28;20273;-75
2021/06/30 05:38:58;;;;;;;0.10;0.10;;;;;;;13.00;98.82;95364.81;5056442;28;20257;-75
2021/06/30 05:41:31;;;;;;;0.00;0.00;;;;;;;13.17;97.68;95367.84;5068154;28;20222;-76
2021/06/30 05:44:05;;;;;;;0.07;0.00;;;;;;;13.41;97.38;95362.91;5055471;28;20222;-75
2021/06/30 05:46:38;;;;;;;0.10;0.10;;;;;;;13.52;96.78;95367.56;5055297;28;20222;-75
2021/06/30 05:49:12;;;;;;;0.03;0.03;;;;;;;13.63;95.64;95348.38;5046806;28;20762;-76
2021/06/30 05:51:45;;;;;;;0.30;0.10;;;;;;;13.71;95.72;95356.06;5053766;28;20221;-76
2021/06/30 05:54:18;;;;;;;0.07;0.07;;;;;;;13.62;94.40;95359.97;5049434;28;20615;-76
2021/06/30 05:56:51;;;;;;;0.00;0.00;;;;;;;13.55;93.98;95361.88;5063307;28;20508;-75
2021/06/30 05:59:25;;;;;;;0.00;0.00;;;;;;;13.64;94.41;95371.22;5056018;28;20215;-76
2021/06/30 06:01:58;;;;;;;0.10;0.10;;;;;;;13.70;93.88;95364.25;5051577;28;20283;-76
2021/06/30 06:04:31;;;;;;;0.00;0.00;;;;;;;14.00;94.45;95369.84;5044873;28;20218;-76
2021/06/30 06:07:05;;;;;;;0.00;0.00;;;;;;;14.10;91.43;95367.53;5056067;28;20283;-77
2021/06/30 06:09:37;;;;;;;0.10;0.10;;;;;;;14.21;91.11;95377.47;5055062;28;20206;-76
2021/06/30 06:12:10;;;;;;;0.03;0.03;;;;;;;14.32;90.30;95368.00;5058648;28;20225;-76
2021/06/30 06:14:44;;;;;;;0.07;0.07;;;;;;;14.05;90.31;95365.50;5045680;28;20265;-77
2021/06/30 06:17:12;;;;;;;0.00;0.00;;;;;;;14.42;90.91;95358.53;5055444;28;20222;-76
2021/06/30 06:19:45;;;;;;;0.10;0.00;;;;;;;14.56;89.31;95364.63;5059643;28;20280;-77
2021/06/30 06:22:18;;;;;;;1.03;0.00;;;;;;;14.60;88.93;95367.63;5074462;28;20238;-77
2021/06/30 06:24:51;;;;;;;0.30;0.30;;;;;;;14.67;88.19;95365.75;5052036;28;20601;-77
2021/06/30 06:27:24;;;;;;;0.10;0.10;;;;;;;14.80;87.89;95365.63;5044331;28;20761;-77
2021/06/30 06:30:00;;;;;;;0.00;0.00;;;;;;;14.82;87.09;95357.47;5055816;28;20444;-76
2021/06/30 06:32:32;;;;;;;0.00;0.00;;;;;;;14.95;86.17;95368.78;5049619;28;20291;-76
2021/06/30 06:35:07;;;;;;;0.27;0.00;;;;;;;15.06;86.90;95368.06;5056057;28;20406;-76
2021/06/30 06:37:40;;;;;;;0.00;0.00;;;;;;;15.22;85.63;95366.69;5053047;28;20237;-77
2021/06/30 06:40:14;;;;;;;0.20;0.10;;;;;;;15.25;86.10;95357.47;5044481;28;20218;-77
2021/06/30 06:42:47;;;;;;;0.00;0.00;;;;;;;15.10;87.24;95362.34;5053929;28;20757;-77
2021/06/30 06:45:22;;;;;;;0.07;0.07;;;;;;;14.95;87.61;95368.78;5052717;28;20303;-77
2021/06/30 06:47:54;;;;;;;0.00;0.00;;;;;;;15.08;87.10;95355.38;5068045;28;20279;-77
2021/06/30 06:50:27;;;;;;;0.20;0.20;;;;;;;15.20;86.42;95363.44;5054683;28;20222;-77
2021/06/30 06:53:01;;;;;;;0.10;0.10;;;;;;;15.46;84.87;95365.03;5045738;28;20753;-76
2021/06/30 06:55:34;;;;;;;0.00;0.00;;;;;;;15.52;83.75;95358.81;5049546;28;20223;-76
2021/06/30 06:58:08;;;;;;;1.47;0.50;;;;;;;15.53;84.50;95362.28;5064557;28;20226;-77
2021/06/30 07:00:43;;;;;;;0.00;0.00;;;;;;;15.64;85.75;95365.06;5054829;28;20246;-77
2021/06/30 07:03:16;;;;;;;0.00;0.00;;;;;;;15.59;83.73;95366.72;5045383;28;20656;-77
2021/06/30 07:05:43;;;;;;;0.03;0.03;;;;;;;15.48;83.61;95368.28;5055321;28;20278;-77
2021/06/30 07:08:16;;;;;;;0.00;0.00;;;;;;;15.49;83.87;95369.09;5047038;28;20222;-78
2021/06/30 07:10:49;;;;;;;1.17;0.20;;;;;;;15.20;83.78;95370.63;5073740;28;20284;-78
2021/06/30 07:13:22;;;;;;;0.03;0.03;;;;;;;15.31;84.25;95375.19;5054692;28;20218;-77
2021/06/30 07:15:57;;;;;;;0.10;0.10;;;;;;;15.57;85.80;95372.25;5051851;28;20225;-77
2021/06/30 07:18:30;;;;;;;1.70;0.00;;;;;;;15.44;83.87;95372.38;5048695;28;20344;-78
2021/06/30 07:21:05;;;;;;;0.60;0.10;;;;;;;15.60;85.05;95374.50;5055964;28;20223;-78
2021/06/30 07:23:38;;;;;;;0.10;0.10;;;;;;;15.58;84.67;95373.06;5051053;28;20235;-77
2021/06/30 07:26:12;;;;;;;0.20;0.10;;;;;;;15.44;82.38;95369.72;5060512;28;20222;-78
2021/06/30 07:28:45;;;;;;;0.10;0.10;;;;;;;15.19;84.06;95379.63;5056647;28;20799;-78
2021/06/30 07:31:21;;;;;;;0.10;0.10;;;;;;;15.09;84.30;95374.81;5050067;28;20458;-77
2021/06/30 07:33:54;;;;;;;0.17;0.10;;;;;;;14.63;85.33;95375.16;5052849;28;20294;-77
2021/06/30 07:36:27;;;;;;;0.10;0.10;;;;;;;14.40;84.84;95381.03;5042365;28;20323;-79
2021/06/30 07:38:55;;;;;;;1.07;0.10;;;;;;;14.42;86.41;95379.78;5052954;28;20227;-77
2021/06/30 07:41:28;;;;;;;0.17;0.10;;;;;;;14.38;85.81;95383.09;5044951;28;20269;-77
2021/06/30 07:44:02;;;;;;;0.53;0.10;;;;;;;14.54;86.81;95387.06;5045926;28;20776;-77
2021/06/30 07:46:31;;;;;;;0.20;0.13;;;;;;;14.58;85.56;95382.97;5067034;28;20266;-77
2021/06/30 07:48:59;;;;;;;0.10;0.10;;;;;;;14.65;87.01;95389.06;5062279;28;20275;-77
2021/06/30 07:51:27;;;;;;;0.20;0.10;;;;;;;14.47;85.80;95380.00;5052644;28;20241;-77
2021/06/30 07:53:55;;;;;;;0.10;0.10;;;;;;;14.76;83.96;95391.84;5052978;28;20745;-79
2021/06/30 07:56:34;;;;;;;0.10;0.10;;;;;;;14.88;85.40;95394.59;5068950;28;20312;-77
2021/06/30 07:59:09;;;;;;;1.60;0.10;;;;;;;15.18;85.32;95388.59;5051633;28;20230;-76
2021/06/30 08:01:39;;;;;;;0.20;0.20;;;;;;;15.02;82.44;95390.81;5076144;28;20317;-79
2021/06/30 08:04:08;;;;;;;0.10;0.10;;;;;;;15.27;82.89;95388.13;5052251;28;20303;-76
2021/06/30 08:06:36;;;;;;;0.10;0.10;;;;;;;15.47;84.00;95393.25;5055160;28;20231;-77
2021/06/30 08:09:05;;;;;;;0.03;0.03;;;;;;;15.46;83.09;95394.28;5052592;28;20237;-77
2021/06/30 08:11:50;;;;;;;0.00;0.00;;;;;;;15.53;82.91;95397.66;5056801;28;20215;-77
2021/06/30 08:14:18;;;;;;;0.60;0.20;;;;;;;15.36;82.07;95385.97;5057984;28;20277;-78
2021/06/30 08:16:47;;;;;;;0.10;0.10;;;;;;;15.36;81.68;95391.28;5065304;28;20246;-78
2021/06/30 08:19:15;;;;;;;0.20;0.10;;;;;;;15.26;82.13;95381.16;5048024;28;20659;-77
2021/06/30 08:21:43;;;;;;;0.10;0.10;;;;;;;15.45;84.07;95376.66;5051792;28;20241;-78
2021/06/30 08:24:11;;;;;;;0.50;0.10;;;;;;;15.74;82.29;95387.66;5050597;28;20706;-79
2021/06/30 08:26:39;;;;;;;0.10;0.10;;;;;;;15.79;80.93;95375.31;5053746;28;20225;-79
2021/06/30 08:29:07;;;;;;;0.30;0.30;;;;;;;15.88;82.29;95381.94;5050826;28;20650;-78
2021/06/30 08:31:35;;;;;;;0.10;0.10;;;;;;;16.28;81.29;95375.31;5059782;28;20309;-78
2021/06/30 08:34:04;;;;;;;0.20;0.10;;;;;;;16.50;80.65;95381.75;5048481;28;20223;-81
2021/06/30 08:36:33;;;;;;;0.50;0.10;;;;;;;16.78;80.27;95384.63;5049401;28;20369;-81
2021/06/30 08:39:01;;;;;;;0.10;0.10;;;;;;;16.33;78.67;95391.41;5053814;28;20322;-80
2021/06/30 08:41:29;;;;;;;0.10;0.10;;;;;;;16.81;78.58;95385.19;5048426;28;20302;-79
2021/06/30 08:43:58;;;;;;;0.20;0.10;;;;;;;16.64;77.55;95377.84;5071058;28;20442;-78
2021/06/30 08:46:27;;;;;;;2.63;0.10;;;;;;;16.64;78.16;95382.34;5054654;28;20250;-79
2021/06/30 08:48:58;;;;;;;0.10;0.10;;;;;;;16.37;77.07;95387.28;5060009;28;20310;-79
2021/06/30 08:51:28;;;;;;;2.10;0.40;;;;;;;16.77;80.31;95384.84;5059094;28;20583;-79
2021/06/30 08:53:57;;;;;;;0.10;0.10;;;;;;;17.20;76.15;95381.88;5054351;28;20886;-80
2021/06/30 08:56:31;;;;;;;0.10;0.10;;;;;;;17.11;77.33;95385.94;5058068;28;20296;-78
2021/06/30 08:58:59;;;;;;;0.23;0.10;;;;;;;16.76;75.98;95396.56;5055689;28;20784;-78
2021/06/30 09:01:29;;;;;;;4.37;0.37;;;;;;;16.45;77.64;95406.38;5059144;28;20231;-78
2021/06/30 09:03:59;;;;;;;0.10;0.10;;;;;;;15.70;78.86;95403.25;5055376;28;20227;-77
2021/06/30 09:06:31;;;;;;;1.40;0.13;;;;;;;15.37;79.40;95408.88;5075753;28;20347;-78
2021/06/30 09:09:07;;;;;;;0.20;0.10;;;;;;;15.33;79.17;95420.97;5054238;28;20232;-77
2021/06/30 09:11:35;;;;;;;0.10;0.10;;;;;;;15.48;78.51;95416.13;5051165;28;20309;-78
2021/06/30 09:14:22;;;;;;;0.10;0.10;;;;;;;15.38;79.46;95420.34;5052414;28;20726;-77
2021/06/30 09:20:02;;;;;;;0.10;0.10;;;;;;;15.21;80.07;95431.53;5051405;28;20206;-77
2021/06/30 09:22:44;;;;;;;0.40;0.40;;;;;;;15.17;81.64;95429.50;5053673;28;20625;-78
2021/06/30 09:25:30;;;;;;;0.73;0.10;;;;;;;15.08;80.79;95421.81;5053931;28;20309;-77
2021/06/30 09:27:59;;;;;;;0.23;0.10;;;;;;;15.27;82.02;95435.13;5060174;28;20359;-78
2021/06/30 09:30:27;;;;;;;0.10;0.10;;;;;;;15.17;81.79;95434.81;5059721;28;20271;-78
2021/06/30 09:32:58;;;;;;;0.10;0.10;;;;;;;15.44;82.51;95425.56;5072064;28;20223;-78
2021/06/30 09:35:30;;;;;;;0.10;0.10;;;;;;;15.52;81.15;95432.47;5071658;28;20306;-78
2021/06/30 09:38:30;;;;;;;0.30;0.30;;;;;;;15.25;80.75;95431.91;5056090;28;20229;-77
2021/06/30 09:40:59;;;;;;;0.10;0.10;;;;;;;15.08;81.67;95432.44;5070164;28;20242;-77
2021/06/30 09:43:29;;;;;;;1.00;0.73;;;;;;;14.87;81.91;95430.16;5060091;28;20233;-77
2021/06/30 09:45:59;;;;;;;0.40;0.20;;;;;;;14.73;81.89;95426.00;5061421;28;20311;-77
2021/06/30 09:48:30;;;;;;;0.10;0.10;;;;;;;14.87;81.86;95422.19;5052909;28;20249;-77
2021/06/30 09:50:58;;;;;;;2.87;0.40;;;;;;;14.65;83.40;95416.44;5048605;28;20223;-77
2021/06/30 09:53:33;;;;;;;0.30;0.30;;;;;;;14.73;83.60;95412.72;5068762;28;20233;-77
2021/06/30 09:56:12;;;;;;;0.20;0.10;;;;;;;14.48;83.42;95416.13;5050432;28;20734;-78
2021/06/30 09:59:22;;;;;;;0.10;0.10;;;;;;;14.54;83.96;95413.63;5068047;28;20226;-77
2021/06/30 10:02:00;;;;;;;3.20;0.10;;;;;;;14.55;84.40;95409.97;5054614;28;20222;-77
2021/06/30 10:04:31;;;;;;;4.03;0.30;;;;;;;14.73;84.87;95404.75;5067604;28;20218;-77
2021/06/30 10:07:02;;;;;;;0.10;0.10;;;;;;;15.06;83.73;95402.59;5051728;28;20234;-77
2021/06/30 10:09:33;;;;;;;0.20;0.20;;;;;;;15.38;84.36;95405.19;5047939;28;20342;-77
2021/06/30 10:12:05;;;;;;;0.10;0.10;;;;;;;15.75;82.04;95397.28;5061032;28;20580;-77
2021/06/30 10:14:33;;;;;;;1.80;0.17;;;;;;;16.14;81.66;95403.94;5056856;28;20218;-77
2021/06/30 10:17:01;;;;;;;0.20;0.10;;;;;;;16.41;80.33;95393.75;5052773;28;20279;-77
2021/06/30 10:19:30;;;;;;;0.10;0.10;;;;;;;16.01;80.09;95388.97;5060496;28;20222;-77
2021/06/30 10:21:59;;;;;;;0.20;0.20;;;;;;;16.18;79.34;95395.31;5053032;28;20247;-77
2021/06/30 10:24:27;;;;;;;0.47;0.30;;;;;;;16.40;80.04;95384.16;5052082;28;20537;-76
2021/06/30 10:26:58;;;;;;;0.30;0.30;;;;;;;16.63;77.62;95378.06;5045953;28;20231;-77
2021/06/30 10:29:29;;;;;;;0.30;0.30;;;;;;;16.63;79.07;95384.19;5052945;28;20210;-77
2021/06/30 10:32:00;;;;;;;0.10;0.10;;;;;;;16.80;78.72;95386.25;5042772;28;20336;-77
2021/06/30 10:34:40;;;;;;;0.93;0.20;;;;;;;17.06;77.91;95380.47;5054280;28;20210;-77
2021/06/30 10:37:20;;;;;;;0.20;0.20;;;;;;;17.23;75.82;95378.75;5048504;28;20353;-78
2021/06/30 10:39:49;;;;;;;0.10;0.10;;;;;;;17.33;76.48;95370.97;5057501;28;20269;-76
2021/06/30 10:42:30;;;;;;;0.20;0.20;;;;;;;17.15;75.50;95376.44;5068508;28;20262;-76
2021/06/30 10:45:00;;;;;;;0.10;0.10;;;;;;;17.30;75.82;95382.13;5045183;28;20223;-77
2021/06/30 10:47:41;;;;;;;0.20;0.20;;;;;;;17.23;75.35;95376.09;5051040;28;21097;-77
2021/06/30 10:50:38;;;;;;;0.10;0.10;;;;;;;17.15;76.20;95379.09;5047602;28;20226;-77
2021/06/30 10:53:34;;;;;;;0.23;0.20;;;;;;;17.18;73.89;95373.28;5013950;28;20346;-77
2021/06/30 10:56:06;;;;;;;5.17;0.50;;;;;;;17.30;75.11;95378.63;5062580;28;20360;-76
2021/06/30 10:58:40;;;;;;;2.00;0.30;;;;;;;17.69;74.71;95358.41;5053833;28;20225;-77
2021/06/30 11:01:13;;;;;;;0.20;0.20;;;;;;;17.69;74.08;95358.41;5050815;28;20245;-77
2021/06/30 11:03:49;;;;;;;2.13;0.63;;;;;;;17.98;72.40;95355.81;5050833;28;20226;-76
2021/06/30 11:06:24;;;;;;;0.30;0.30;;;;;;;18.08;73.04;95356.00;5046793;28;20316;-76
2021/06/30 11:08:54;;;;;;;0.43;0.20;;;;;;;17.94;72.29;95358.16;5052593;28;20612;-76
2021/06/30 11:12:01;;;;;;;0.20;0.20;;;;;;;18.37;72.18;95346.91;5052757;28;20317;-78
2021/06/30 11:14:44;;;;;;;0.20;0.20;;;;;;;18.53;67.06;95344.53;5051131;28;20455;-77
2021/06/30 11:17:33;;;;;;;0.27;0.23;;;;;;;18.85;70.52;95351.00;5058849;28;20330;-77
2021/06/30 11:20:02;;;;;;;0.30;0.30;;;;;;;18.92;70.98;95340.91;5048646;28;20683;-76
2021/06/30 11:22:33;;;;;;;0.23;0.20;;;;;;;19.10;67.76;95341.72;5048688;28;20219;-76
2021/06/30 11:25:04;;;;;;;1.90;0.20;;;;;;;18.84;70.46;95344.03;5045219;28;20308;-76
2021/06/30 11:27:45;;;;;;;0.10;0.10;;;;;;;18.38;69.72;95326.38;5055089;28;20305;-77
2021/06/30 11:30:34;;;;;;;0.40;0.20;;;;;;;18.44;70.81;95328.88;5056349;28;20221;-76
2021/06/30 11:33:02;;;;;;;0.30;0.20;;;;;;;18.62;69.34;95335.88;5051774;28;20210;-76
2021/06/30 11:35:34;;;;;;;0.10;0.10;;;;;;;18.60;69.45;95331.81;5052390;28;20226;-76
2021/06/30 11:38:12;;;;;;;0.10;0.10;;;;;;;18.17;69.14;95331.34;5054497;28;20234;-77
2021/06/30 11:40:54;;;;;;;0.37;0.20;;;;;;;17.79;72.10;95326.59;5051811;28;20313;-76
2021/06/30 11:43:25;;;;;;;0.43;0.20;;;;;;;17.99;73.03;95325.38;5052364;28;20238;-76
2021/06/30 11:45:58;;;;;;;0.97;0.50;;;;;;;18.03;72.80;95330.03;5047013;28;20397;-76
2021/06/30 11:48:28;;;;;;;0.80;0.37;;;;;;;18.19;72.11;95328.41;5054997;28;20309;-76
2021/06/30 11:50:58;;;;;;;0.30;0.30;;;;;;;17.89;71.87;95321.47;5056375;28;20309;-76
2021/06/30 11:53:36;;;;;;;0.50;0.20;;;;;;;18.39;69.46;95331.47;5058599;28;20210;-76
2021/06/30 11:56:05;;;;;;;0.30;0.20;;;;;;;18.22;71.39;95343.19;5054020;28;20418;-76
2021/06/30 11:58:52;;;;;;;0.40;0.40;;;;;;;18.11;73.28;95334.19;5052303;28;20370;-76
2021/06/30 12:01:25;;;;;;;0.30;0.30;;;;;;;18.55;70.20;95323.72;5051826;28;20309;-77